FQCH

Chimoio Airport

Chimoio, Mozambique
METAR FQCH 170600Z 01004KT CAVOK 21/18 Q1020
Observed Flight Rules
Dec-17 @ 06:00 UTC (22 minutes ago) Visual Flight Rules
Wind Visibility Clouds
10° at 4 knots 10,000+ meters
  • Clear skies
Temperatures Readings
Current 21°C / 70°F
Dewpoint 18°C / 64°F
Humidity 83%
Altimeter 30.12" Hg
Pressure 1020 hPa
Elevation 732
METAR FQCH 170600Z 01004KT CAVOK 21/18 Q1020
Observed Flight Rules
Dec-17 @ 06:00 UTC
(22 minutes ago)
VFR
Wind Visibility
10° at 4 knots 10,000+ meters
Clouds
  • Clear skies
Temperature Dewpoint
21°C / 70°F 18°C / 64°F
Humidity Altimeter Pressure
83% 30.12" Hg 1020 hPa